Time;durP1;ratioP1;P1;durP2;ratioP2;P2;SDS_P1;SDS_P2;PMS_P1;PMS_P2;Temp;Humidity;BMP_temperature;BMP_pressure;BME280_temperature;BME280_humidity;BME280_pressure;Samples;Min_cycle;Max_cycle;Signal;HPM_P1;HPM_P2
2024/03/28 00:01:59;;;;;;;;;15.75;11.75;;;;;-143.90;83.65;73301.66;4851090;28;102546;-74
2024/03/28 00:04:25;;;;;;;;;11.00;7.50;;;;;-143.90;84.26;73303.72;4835453;28;102921;-74
2024/03/28 00:06:50;;;;;;;;;21.50;20.50;;;;;-143.90;83.73;73295.47;4856249;28;104504;-75
2024/03/28 00:09:16;;;;;;;;;36.50;33.50;;;;;-143.90;83.96;73287.19;4847245;28;102557;-74
2024/03/28 00:11:41;;;;;;;;;35.75;32.00;;;;;-143.90;82.98;73283.06;4855859;28;102254;-74
2024/03/28 00:14:07;;;;;;;;;37.00;34.00;;;;;-143.90;82.84;73281.00;4851024;28;102550;-74
2024/03/28 00:16:32;;;;;;;;;24.50;23.75;;;;;-143.90;82.48;73281.00;4860572;28;104921;-74
2024/03/28 00:18:58;;;;;;;;;30.00;25.50;;;;;-143.90;80.61;73252.06;4855494;28;102438;-73
2024/03/28 00:21:24;;;;;;;;;22.75;21.25;;;;;-143.90;79.28;73241.75;4852091;28;102692;-74
2024/03/28 00:23:49;;;;;;;;;20.50;17.00;;;;;-143.90;77.42;73233.47;4847102;28;102318;-74
2024/03/28 00:26:15;;;;;;;;;19.50;18.00;;;;;-143.90;77.48;73216.94;4841933;28;104451;-73
2024/03/28 00:28:40;;;;;;;;;11.75;11.50;;;;;-143.90;77.95;73233.47;4851148;28;104866;-73
2024/03/28 00:31:07;;;;;;;;;9.00;9.00;;;;;-143.90;76.03;73216.94;4845296;28;102351;-75
2024/03/28 00:33:33;;;;;;;;;9.00;8.00;;;;;-143.90;76.77;73223.13;4856357;28;104785;-74
2024/03/28 00:35:58;;;;;;;;;9.25;9.25;;;;;-143.90;77.64;73214.88;4862982;28;109331;-74
2024/03/28 00:38:24;;;;;;;;;12.00;12.00;;;;;-143.90;77.61;73204.53;4841042;28;103685;-74
2024/03/28 00:40:52;;;;;;;;;9.00;9.00;;;;;-143.90;77.51;73204.53;4853964;28;102279;-73
2024/03/28 00:43:18;;;;;;;;;12.50;11.50;;;;;-143.90;78.51;73200.41;4849117;28;102204;-74
2024/03/28 00:45:45;;;;;;;;;8.75;6.50;;;;;-143.90;78.11;73206.59;4868772;28;104575;-74
2024/03/28 00:48:11;;;;;;;;;9.25;8.75;;;;;-143.90;77.79;73200.41;4845275;28;101801;-74
2024/03/28 00:50:37;;;;;;;;;10.00;6.00;;;;;-143.90;78.51;73204.53;4848984;28;103491;-73
2024/03/28 00:53:04;;;;;;;;;11.00;8.25;;;;;-143.90;80.33;73212.81;4863471;28;103366;-73
2024/03/28 00:55:30;;;;;;;;;10.00;8.00;;;;;-143.90;79.27;73196.28;4848931;28;104685;-74
2024/03/28 00:57:56;;;;;;;;;13.50;12.50;;;;;-143.90;77.22;73188.00;4853728;28;102578;-73
2024/03/28 01:00:22;;;;;;;;;10.00;8.50;;;;;-143.90;77.73;73181.81;4843626;28;102822;-73
2024/03/28 01:02:47;;;;;;;;;14.25;13.25;;;;;-143.90;76.40;73192.16;4853273;28;102452;-73
2024/03/28 01:05:14;;;;;;;;;13.75;10.00;;;;;-143.90;77.87;73185.94;4854296;28;104618;-74
2024/03/28 01:07:39;;;;;;;;;10.00;9.00;;;;;-143.90;76.82;73175.63;4854025;28;102542;-73
2024/03/28 01:10:06;;;;;;;;;11.00;9.00;;;;;-143.90;76.23;73161.16;4853486;28;102503;-71
2024/03/28 01:12:31;;;;;;;;;9.00;5.50;;;;;-143.90;75.91;73159.09;4851516;28;102384;-74
2024/03/28 01:14:57;;;;;;;;;5.50;5.00;;;;;-143.90;75.68;73152.88;4850334;28;104481;-74
2024/03/28 01:17:23;;;;;;;;;6.75;5.00;;;;;-143.90;75.63;73154.94;4854752;28;105187;-74
2024/03/28 01:19:50;;;;;;;;;11.75;9.25;;;;;-143.90;74.87;73154.94;4851138;28;102585;-74
2024/03/28 01:22:15;;;;;;;;;7.00;7.00;;;;;-143.90;75.67;73159.09;4846576;28;102224;-73
2024/03/28 01:24:41;;;;;;;;;9.00;9.00;;;;;-143.90;75.46;73157.00;4855669;28;104549;-73
2024/03/28 01:27:07;;;;;;;;;10.00;7.50;;;;;-143.90;75.61;73152.88;4853821;28;102043;-72
2024/03/28 01:29:32;;;;;;;;;18.25;14.00;;;;;-143.90;76.44;73157.00;4855927;28;102465;-73
2024/03/28 01:31:58;;;;;;;;;14.00;11.00;;;;;-143.90;76.23;73154.94;4849327;28;102533;-74
2024/03/28 01:34:26;;;;;;;;;14.00;12.50;;;;;-143.90;77.72;73152.88;4834308;28;102936;-74
2024/03/28 01:36:52;;;;;;;;;12.00;9.50;;;;;-143.90;77.35;73154.94;4854474;28;102340;-74
2024/03/28 01:39:18;;;;;;;;;7.75;6.75;;;;;-143.90;78.25;73159.09;4846896;28;102046;-74
2024/03/28 01:41:49;;;;;;;;;7.00;3.50;;;;;-143.90;79.21;73171.47;4851753;28;102288;-74
2024/03/28 01:44:15;;;;;;;;;12.50;8.50;;;;;-143.90;78.39;73165.28;4860106;28;104519;-72
2024/03/28 01:46:41;;;;;;;;;8.00;6.75;;;;;-143.90;78.37;73165.28;4850660;28;102502;-75
2024/03/28 01:49:09;;;;;;;;;3.25;3.25;;;;;-143.90;79.79;73169.41;4856942;28;102223;-75
2024/03/28 01:51:36;;;;;;;;;6.00;6.00;;;;;-143.90;79.67;73167.34;4864828;28;102365;-74
2024/03/28 01:54:03;;;;;;;;;9.00;7.25;;;;;-143.90;80.65;73167.34;4852489;28;104732;-74
2024/03/28 01:56:29;;;;;;;;;10.00;7.25;;;;;-143.90;82.12;73175.63;4843666;28;104396;-74
2024/03/28 01:58:55;;;;;;;;;8.25;4.00;;;;;-143.90;81.30;73167.34;4846091;28;102623;-75
2024/03/28 02:01:20;;;;;;;;;3.75;3.75;;;;;-143.90;80.40;73163.22;4851957;28;102505;-75
2024/03/28 02:03:46;;;;;;;;;4.75;4.00;;;;;-143.90;80.57;73161.16;4852950;28;104607;-73
2024/03/28 02:06:12;;;;;;;;;5.00;4.25;;;;;-143.90;79.46;73157.00;4842586;28;102978;-74
2024/03/28 02:08:38;;;;;;;;;8.00;5.50;;;;;-143.90;79.47;73148.75;4853526;28;102068;-75
2024/03/28 02:11:03;;;;;;;;;8.75;8.00;;;;;-143.90;80.77;73150.81;4845446;28;102396;-75
2024/03/28 02:13:29;;;;;;;;;12.00;7.00;;;;;-143.90;80.52;73146.69;4851898;28;104580;-75
2024/03/28 02:15:54;;;;;;;;;6.75;4.75;;;;;-143.90;82.24;73146.69;4853535;28;102240;-74
2024/03/28 02:18:21;;;;;;;;;6.00;5.00;;;;;-143.90;80.87;73142.56;4824876;28;102393;-74
2024/03/28 02:20:47;;;;;;;;;6.00;5.75;;;;;-143.90;81.09;73140.47;4830395;28;102020;-74
2024/03/28 02:23:16;;;;;;;;;5.00;5.00;;;;;-143.90;81.65;73138.41;4830166;28;104476;-73
2024/03/28 02:25:42;;;;;;;;;7.50;6.00;;;;;-143.90;81.36;73132.22;4826541;28;102819;-73
2024/03/28 02:28:09;;;;;;;;;9.00;6.00;;;;;-143.90;82.67;73132.22;4832202;28;103487;-73
2024/03/28 02:30:36;;;;;;;;;6.25;6.00;;;;;-143.90;81.44;73121.88;4839998;28;105202;-74
2024/03/28 02:33:02;;;;;;;;;9.50;7.50;;;;;-143.90;82.15;73109.50;4833049;28;104745;-74
2024/03/28 02:35:27;;;;;;;;;7.75;6.75;;;;;-143.90;80.96;73097.09;4845547;28;102328;-74
2024/03/28 02:37:53;;;;;;;;;6.50;5.00;;;;;-143.90;81.55;73088.81;4828462;28;102004;-74
2024/03/28 02:40:18;;;;;;;;;12.75;9.75;;;;;-143.90;80.16;73078.50;4822036;28;107828;-73
2024/03/28 02:42:44;;;;;;;;;4.50;2.75;;;;;-143.90;79.70;73072.28;4842496;28;104546;-74
2024/03/28 02:45:09;;;;;;;;;6.50;5.25;;;;;-143.90;78.95;73068.16;4830930;28;103863;-73
2024/03/28 02:47:36;;;;;;;;;7.50;6.00;;;;;-143.90;78.85;73068.16;4832638;28;102638;-74
2024/03/28 02:50:02;;;;;;;;;6.00;5.00;;;;;-143.90;79.17;73059.91;4829420;28;102160;-74
2024/03/28 02:52:27;;;;;;;;;5.75;5.00;;;;;-143.90;77.08;73051.63;4816339;28;104607;-74
2024/03/28 02:54:53;;;;;;;;;5.00;4.00;;;;;-143.90;77.10;73047.50;4834922;28;102219;-74
2024/03/28 02:57:23;;;;;;;;;3.50;3.00;;;;;-143.90;76.24;73053.69;4828492;28;102440;-73
2024/03/28 02:59:49;;;;;;;;;3.75;3.25;;;;;-143.90;75.87;73057.84;4832817;28;103937;-75
2024/03/28 03:02:14;;;;;;;;;3.75;3.75;;;;;-143.90;76.67;73049.56;4809947;28;104698;-71
2024/03/28 03:04:40;;;;;;;;;3.00;2.00;;;;;-143.90;76.48;73055.75;4830443;28;102212;-75
2024/03/28 03:07:05;;;;;;;;;4.00;3.00;;;;;-143.90;76.37;73037.16;4833104;28;102540;-75
2024/03/28 03:09:31;;;;;;;;;3.00;3.00;;;;;-143.90;76.06;73037.16;4829044;28;102444;-75
2024/03/28 03:11:57;;;;;;;;;10.00;8.50;;;;;-143.90;77.11;73030.97;4823813;28;104711;-75
2024/03/28 03:14:23;;;;;;;;;7.75;6.50;;;;;-143.90;77.44;73037.16;4816706;28;102436;-75
2024/03/28 03:16:48;;;;;;;;;9.25;5.25;;;;;-143.90;77.71;73035.09;4825146;28;102042;-75
2024/03/28 03:19:16;;;;;;;;;7.00;5.50;;;;;-143.90;77.69;73030.97;4844808;28;102944;-75
2024/03/28 03:21:43;;;;;;;;;6.25;4.00;;;;;-143.90;77.59;73026.84;4822225;28;104541;-76
2024/03/28 03:24:12;;;;;;;;;5.00;3.25;;;;;-143.90;77.13;73026.84;4824466;28;102592;-72
2024/03/28 03:26:38;;;;;;;;;5.50;3.75;;;;;-143.90;76.75;73026.84;4835378;28;102131;-75
2024/03/28 03:34:35;;;;;;;;;5.50;4.50;;;;;-143.90;77.77;73026.84;4815763;28;102451;-74
2024/03/28 03:37:08;;;;;;;;;2.75;2.75;;;;;-143.90;77.31;73026.84;4824216;28;102995;-75
2024/03/28 03:39:34;;;;;;;;;10.00;6.50;;;;;-143.90;78.55;73039.22;4822315;28;102606;-75
2024/03/28 03:42:00;;;;;;;;;4.50;4.50;;;;;-143.90;79.04;73033.03;4831388;28;104728;-75
2024/03/28 03:44:25;;;;;;;;;4.75;3.75;;;;;-143.90;78.49;73037.16;4811531;28;105111;-75
2024/03/28 03:46:51;;;;;;;;;6.00;3.50;;;;;-143.90;79.01;73039.22;4828116;28;104647;-75
2024/03/28 03:49:16;;;;;;;;;7.75;5.75;;;;;-143.90;81.03;73047.50;4828153;28;102162;-75
2024/03/28 03:51:42;;;;;;;;;7.00;6.00;;;;;-143.90;83.38;73057.84;4823521;28;104753;-75
2024/03/28 03:54:08;;;;;;;;;7.25;6.00;;;;;-143.90;85.45;73059.91;4825326;28;102687;-76
2024/03/28 03:56:34;;;;;;;;;10.25;9.00;;;;;-143.90;85.22;73072.28;4821444;28;102119;-75
2024/03/28 03:59:00;;;;;;;;;9.50;7.25;;;;;-143.90;87.36;73078.50;4842644;28;102174;-76
2024/03/28 04:01:26;;;;;;;;;10.75;8.75;;;;;-143.90;90.15;73088.81;4821481;28;104705;-75
2024/03/28 04:03:52;;;;;;;;;10.50;10.00;;;;;-143.90;92.17;73090.91;4825709;28;102132;-75
2024/03/28 04:06:17;;;;;;;;;10.00;9.00;;;;;-143.90;91.96;73092.97;4813270;28;102112;-75
2024/03/28 04:08:43;;;;;;;;;16.75;12.75;;;;;-143.90;92.55;73099.16;4811721;28;102673;-75
2024/03/28 04:11:08;;;;;;;;;13.00;11.75;;;;;-143.90;96.70;73105.34;4833246;28;104600;-75
2024/03/28 04:13:35;;;;;;;;;12.00;8.75;;;;;-143.90;99.82;73109.50;4838449;28;102042;-75
2024/03/28 04:16:00;;;;;;;;;12.50;11.00;;;;;-143.90;100.00;73111.56;4828115;28;102251;-75
2024/03/28 04:18:26;;;;;;;;;12.50;9.00;;;;;-143.90;100.00;73111.56;4815872;28;102234;-75
2024/03/28 04:20:53;;;;;;;;;9.25;6.75;;;;;-143.90;100.00;73105.34;4825175;28;104489;-75
2024/03/28 04:23:19;;;;;;;;;13.00;8.00;;;;;-143.90;100.00;73105.34;4827551;28;103053;-76
2024/03/28 04:25:53;;;;;;;;;9.25;9.25;;;;;-143.90;100.00;73105.34;4835511;28;102528;-75
2024/03/28 04:28:19;;;;;;;;;13.00;7.00;;;;;-143.90;100.00;73101.22;4834639;28;102158;-74
2024/03/28 04:30:44;;;;;;;;;9.25;9.00;;;;;-143.90;100.00;73097.09;4830978;28;104416;-75
2024/03/28 04:33:10;;;;;;;;;5.25;5.00;;;;;-143.90;100.00;73095.03;4834949;28;102490;-73
2024/03/28 04:35:35;;;;;;;;;7.00;6.00;;;;;-143.90;100.00;73097.09;4832761;28;102068;-74
2024/03/28 04:38:01;;;;;;;;;6.75;6.00;;;;;-143.90;100.00;73105.34;4835357;28;102531;-74
2024/03/28 04:40:26;;;;;;;;;5.50;4.75;;;;;-143.90;100.00;73101.22;4820786;28;105693;-74
2024/03/28 04:42:52;;;;;;;;;6.00;4.50;;;;;-143.90;100.00;73101.22;4831890;28;102508;-74
2024/03/28 04:45:18;;;;;;;;;5.00;3.50;;;;;-143.90;99.67;73099.16;4829353;28;102513;-74
2024/03/28 04:47:47;;;;;;;;;3.25;2.75;;;;;-143.90;100.00;73103.28;4823415;28;102145;-75
2024/03/28 04:50:14;;;;;;;;;2.00;2.00;;;;;-143.90;100.00;73103.28;4827420;28;105016;-75
2024/03/28 04:52:40;;;;;;;;;2.25;2.00;;;;;-143.90;100.00;73103.28;4826484;28;103977;-74
2024/03/28 04:55:06;;;;;;;;;2.00;1.00;;;;;-143.90;100.00;73101.22;4837585;28;103874;-75
2024/03/28 04:57:32;;;;;;;;;1.75;1.75;;;;;-143.90;100.00;73105.34;4827929;28;102690;-75
2024/03/28 04:59:57;;;;;;;;;3.25;2.25;;;;;-143.90;100.00;73090.91;4829887;28;104720;-75
2024/03/28 05:02:23;;;;;;;;;4.75;4.00;;;;;-143.90;99.56;73092.97;4813304;28;102379;-74
2024/03/28 05:04:49;;;;;;;;;10.00;7.50;;;;;-143.90;100.00;73095.03;4842229;28;104367;-74
2024/03/28 05:07:15;;;;;;;;;8.75;6.50;;;;;-143.90;100.00;73095.03;4826306;28;102405;-74
2024/03/28 05:09:40;;;;;;;;;4.75;4.00;;;;;-143.90;99.60;73090.91;4828459;28;104507;-73
2024/03/28 05:12:07;;;;;;;;;7.75;5.75;;;;;-143.90;98.69;73082.63;4833455;28;103581;-74
2024/03/28 05:14:32;;;;;;;;;6.00;4.50;;;;;-143.90;98.94;73078.50;4819686;28;102044;-75
2024/03/28 05:16:59;;;;;;;;;10.25;6.50;;;;;-143.90;99.43;73088.81;4830604;28;102353;-75
2024/03/28 05:19:25;;;;;;;;;7.50;6.75;;;;;-143.90;100.00;73088.81;4844228;28;104811;-75
2024/03/28 05:21:51;;;;;;;;;11.00;8.25;;;;;-143.90;100.00;73095.03;4856518;28;102502;-75
2024/03/28 05:24:17;;;;;;;;;13.50;10.25;;;;;-143.90;100.00;73103.28;4837643;28;103533;-74
2024/03/28 05:26:42;;;;;;;;;9.50;7.25;;;;;-143.90;100.00;73113.63;4864203;28;102281;-75
2024/03/28 05:29:08;;;;;;;;;6.00;6.00;;;;;-143.90;100.00;73111.56;4849339;28;104854;-76
2024/03/28 05:31:33;;;;;;;;;9.50;5.50;;;;;-143.90;100.00;73107.41;4849238;28;102275;-74
2024/03/28 05:33:59;;;;;;;;;3.25;3.00;;;;;-143.90;100.00;73107.41;4854919;28;102081;-72
2024/03/28 05:36:25;;;;;;;;;5.50;3.75;;;;;-143.90;100.00;73117.75;4844817;28;103015;-72
2024/03/28 05:38:51;;;;;;;;;3.75;3.00;;;;;-143.90;100.00;73113.63;4853989;28;104506;-73
2024/03/28 05:41:16;;;;;;;;;5.75;4.00;;;;;-143.90;100.00;73105.34;4849300;28;102298;-73
2024/03/28 05:43:43;;;;;;;;;8.50;5.00;;;;;-143.90;100.00;73105.34;4856347;28;103120;-72
2024/03/28 05:46:10;;;;;;;;;4.00;3.75;;;;;-143.90;100.00;73105.34;4857318;28;102052;-73
2024/03/28 05:48:35;;;;;;;;;5.00;3.25;;;;;-143.90;100.00;73109.50;4847733;28;109910;-74
2024/03/28 05:51:01;;;;;;;;;3.75;2.00;;;;;-143.90;100.00;73105.34;4847721;28;102528;-74
2024/03/28 05:53:26;;;;;;;;;2.50;2.50;;;;;-143.90;100.00;73105.34;4855274;28;102682;-74
2024/03/28 05:55:52;;;;;;;;;3.75;2.50;;;;;-143.90;100.00;73109.50;4850164;28;102751;-74
2024/03/28 05:58:17;;;;;;;;;3.50;2.00;;;;;-143.90;100.00;73097.09;4837583;28;104464;-73
2024/03/28 06:00:43;;;;;;;;;2.00;1.00;;;;;-143.90;100.00;73107.41;4848725;28;103028;-73
2024/03/28 06:03:09;;;;;;;;;4.00;3.00;;;;;-143.90;100.00;73105.34;4855233;28;103717;-73
2024/03/28 06:05:34;;;;;;;;;3.75;3.00;;;;;-143.90;100.00;73105.34;4858785;28;102680;-73
2024/03/28 06:08:00;;;;;;;;;4.50;3.75;;;;;-143.90;100.00;73113.63;4839908;28;104600;-73
2024/03/28 06:10:26;;;;;;;;;1.75;1.75;;;;;-143.90;100.00;73103.28;4841877;28;103477;-72
2024/03/28 06:12:52;;;;;;;;;3.00;2.00;;;;;-143.90;100.00;73105.34;4856074;28;102389;-73
2024/03/28 06:15:17;;;;;;;;;4.00;2.00;;;;;-143.90;100.00;73105.34;4858542;28;102408;-72
2024/03/28 06:17:43;;;;;;;;;1.00;0.75;;;;;-143.90;100.00;73097.09;4856741;28;104552;-72
2024/03/28 06:20:11;;;;;;;;;4.25;3.00;;;;;-143.90;100.00;73084.69;4852675;28;106117;-73
2024/03/28 06:22:38;;;;;;;;;2.00;2.00;;;;;-143.90;100.00;73074.34;4842499;28;102615;-73
2024/03/28 06:25:05;;;;;;;;;4.00;3.00;;;;;-143.90;100.00;73076.44;4846347;28;102388;-73
2024/03/28 06:27:31;;;;;;;;;3.00;2.25;;;;;-143.90;100.00;73064.03;4850214;28;104775;-73
2024/03/28 06:29:57;;;;;;;;;6.00;5.50;;;;;-143.90;100.00;73059.91;4849813;28;102449;-72
2024/03/28 06:32:25;;;;;;;;;6.25;5.00;;;;;-143.90;100.00;73068.16;4838042;28;102381;-74
2024/03/28 06:34:52;;;;;;;;;3.75;1.75;;;;;-143.90;100.00;73057.84;4854731;28;102639;-73
2024/03/28 06:37:18;;;;;;;;;2.75;2.00;;;;;-143.90;100.00;73047.50;4849517;28;104613;-73
2024/03/28 06:39:45;;;;;;;;;2.00;2.00;;;;;-143.90;100.00;73047.50;4848886;28;102305;-73
2024/03/28 06:42:10;;;;;;;;;3.75;3.00;;;;;-143.90;100.00;73047.50;4850720;28;103892;-71
2024/03/28 06:44:36;;;;;;;;;2.00;2.00;;;;;-143.90;100.00;73049.56;4852827;28;102364;-74
2024/03/28 06:47:04;;;;;;;;;3.75;2.75;;;;;-143.90;100.00;73043.38;4873983;28;104617;-73
2024/03/28 06:49:30;;;;;;;;;5.75;3.00;;;;;-143.90;100.00;73055.75;4853639;28;102034;-73
2024/03/28 06:51:55;;;;;;;;;2.50;2.00;;;;;-143.90;100.00;73066.09;4852286;28;102256;-73
2024/03/28 06:54:21;;;;;;;;;4.00;3.25;;;;;-143.90;100.00;73084.69;4840014;28;102664;-73
2024/03/28 06:56:47;;;;;;;;;5.00;4.50;;;;;-143.90;100.00;73088.81;4851323;28;104511;-73
2024/03/28 06:59:13;;;;;;;;;5.00;3.00;;;;;-143.90;100.00;73090.91;4856292;28;102037;-73
2024/03/28 07:01:42;;;;;;;;;3.00;3.00;;;;;-143.90;100.00;73092.97;4861097;28;102517;-73
2024/03/28 07:04:08;;;;;;;;;4.00;4.00;;;;;-143.90;100.00;73099.16;4850263;28;102311;-73
2024/03/28 07:06:35;;;;;;;;;4.00;3.75;;;;;-143.90;100.00;73101.22;4844809;28;104609;-74
2024/03/28 07:09:01;;;;;;;;;5.50;4.00;;;;;-143.90;100.00;73097.09;4854163;28;105256;-73
2024/03/28 07:11:27;;;;;;;;;6.00;3.00;;;;;-143.90;100.00;73090.91;4851508;28;102480;-73
2024/03/28 07:13:53;;;;;;;;;4.75;4.00;;;;;-143.90;100.00;73088.81;4856993;28;102617;-73
2024/03/28 07:16:19;;;;;;;;;5.50;4.75;;;;;-143.90;100.00;73088.81;4846064;28;104580;-73
2024/03/28 07:18:45;;;;;;;;;4.00;3.25;;;;;-143.90;100.00;73084.69;4855645;28;102632;-73
2024/03/28 07:21:11;;;;;;;;;3.00;3.00;;;;;-143.90;100.00;73078.50;4854365;28;102008;-74
2024/03/28 07:23:40;;;;;;;;;4.00;4.00;;;;;-143.90;100.00;73072.28;4841500;28;105223;-74
2024/03/28 07:26:09;;;;;;;;;8.00;5.00;;;;;-143.90;100.00;73059.91;4857438;28;111143;-73
2024/03/28 07:28:35;;;;;;;;;7.00;6.00;;;;;-143.90;100.00;73057.84;4839847;28;104173;-73
2024/03/28 07:31:01;;;;;;;;;7.00;6.00;;;;;-143.90;100.00;73047.50;4846827;28;101987;-74
2024/03/28 07:33:26;;;;;;;;;5.25;4.25;;;;;-143.90;100.00;73035.09;4849731;28;103124;-74
2024/03/28 07:35:52;;;;;;;;;3.00;3.00;;;;;-143.90;100.00;73022.69;4850842;28;104517;-74
2024/03/28 07:38:18;;;;;;;;;4.00;3.25;;;;;-143.90;100.00;73018.56;4845137;28;103103;-72
2024/03/28 07:40:47;;;;;;;;;2.50;2.50;;;;;-143.90;100.00;73008.25;4850478;28;102800;-73
2024/03/28 07:43:13;;;;;;;;;2.00;2.00;;;;;-143.90;100.00;72989.66;4844808;28;102996;-74
2024/03/28 07:45:41;;;;;;;;;3.75;2.50;;;;;-143.90;100.00;72993.78;4867592;28;104772;-73
2024/03/28 07:48:08;;;;;;;;;1.00;1.00;;;;;-143.90;100.00;72964.84;4845157;28;102152;-73
2024/03/28 07:50:34;;;;;;;;;3.50;1.75;;;;;-143.90;100.00;72952.44;4839293;28;102094;-73
2024/03/28 07:53:00;;;;;;;;;1.25;1.25;;;;;-143.90;97.55;72942.13;4854630;28;102063;-74
2024/03/28 07:55:25;;;;;;;;;4.00;1.50;;;;;-143.90;86.34;72933.84;4846015;28;104721;-74
2024/03/28 07:57:51;;;;;;;;;0.75;0.50;;;;;-143.90;93.22;72915.25;4848008;28;102178;-73
2024/03/28 08:00:17;;;;;;;;;1.00;0.00;;;;;-143.90;91.72;72878.06;4842610;28;103781;-73
2024/03/28 08:02:45;;;;;;;;;4.00;2.00;;;;;-143.90;87.75;72884.25;4851484;28;102439;-73
2024/03/28 08:05:12;;;;;;;;;3.00;2.00;;;;;-143.90;84.89;72876.00;4858084;28;104575;-74
2024/03/28 08:07:38;;;;;;;;;1.25;1.25;;;;;-143.90;75.50;72876.00;4853066;28;101885;-74
2024/03/28 08:10:03;;;;;;;;;2.00;1.25;;;;;-143.90;73.24;72855.34;4861077;28;102357;-73
2024/03/28 08:12:29;;;;;;;;;1.00;1.00;;;;;-143.90;74.58;72828.47;4842321;28;102499;-73
2024/03/28 08:14:55;;;;;;;;;2.25;1.25;;;;;-143.90;66.07;72820.22;4850594;28;104450;-74
2024/03/28 08:17:21;;;;;;;;;1.00;1.00;;;;;-143.90;65.03;72789.22;4850026;28;102203;-74
2024/03/28 08:19:47;;;;;;;;;1.50;1.50;;;;;-143.90;62.76;72783.03;4854273;28;103719;-74
2024/03/28 08:22:14;;;;;;;;;1.33;1.33;;;;;-143.90;61.87;72797.47;4857103;28;102883;-75
2024/03/28 08:24:40;;;;;;;;;10.00;7.75;;;;;-143.90;61.03;72811.94;4849152;28;103609;-74
2024/03/28 08:27:07;;;;;;;;;7.50;7.00;;;;;-143.90;62.74;72795.41;4855197;28;103403;-73
2024/03/28 08:29:33;;;;;;;;;5.75;5.00;;;;;-143.90;59.91;72795.41;4853527;28;102262;-74
2024/03/28 08:31:58;;;;;;;;;12.25;9.50;;;;;-143.90;60.12;72805.75;4855363;28;102331;-74
2024/03/28 08:34:25;;;;;;;;;7.25;6.00;;;;;-143.90;58.64;72799.56;4847174;28;104668;-74
2024/03/28 08:36:51;;;;;;;;;5.75;5.00;;;;;-143.90;57.54;72830.53;4847127;28;102197;-74
2024/03/28 08:39:22;;;;;;;;;3.25;3.25;;;;;-143.90;57.22;72840.88;4849782;28;102803;-73
2024/03/28 08:41:48;;;;;;;;;5.00;4.50;;;;;-143.90;58.13;72873.94;4849464;28;102360;-73
2024/03/28 08:44:14;;;;;;;;;5.25;5.00;;;;;-143.90;59.11;72923.53;4846108;28;104713;-74
2024/03/28 08:46:42;;;;;;;;;6.75;6.00;;;;;-143.90;58.30;72958.66;4849068;28;102112;-72
2024/03/28 08:49:08;;;;;;;;;5.25;4.25;;;;;-143.90;59.62;72960.72;4853272;28;102578;-74
2024/03/28 08:51:34;;;;;;;;;3.00;2.00;;;;;-143.90;60.95;72956.59;4852268;28;102756;-73
2024/03/28 08:53:59;;;;;;;;;1.00;1.00;;;;;-143.90;60.32;72964.84;4846473;28;104654;-74
2024/03/28 08:56:25;;;;;;;;;1.00;1.00;;;;;-143.90;59.74;72977.25;4827505;28;102520;-73
2024/03/28 08:58:50;;;;;;;;;0.00;0.00;;;;;-143.90;58.72;72977.25;4850586;28;103159;-73
2024/03/28 09:01:17;;;;;;;;;1.00;0.00;;;;;-143.90;59.26;72973.13;4860898;28;101973;-74
2024/03/28 09:03:42;;;;;;;;;0.00;0.00;;;;;-143.90;57.90;72944.19;4847895;28;104570;-73
2024/03/28 09:06:09;;;;;;;;;0.00;0.00;;;;;-143.90;57.54;72921.47;4851928;28;104889;-73
2024/03/28 09:08:36;;;;;;;;;0.00;0.00;;;;;-143.90;55.73;72900.78;4839318;28;103040;-74
2024/03/28 09:11:03;;;;;;;;;0.00;0.00;;;;;-143.90;54.63;72886.34;4852238;28;106227;-74
2024/03/28 09:13:29;;;;;;;;;0.67;0.00;;;;;-143.90;54.36;72861.53;4855196;28;104818;-74
2024/03/28 09:15:55;;;;;;;;;0.00;0.00;;;;;-143.90;53.51;72834.69;4851544;28;102510;-74
2024/03/28 09:18:21;;;;;;;;;0.33;0.33;;;;;-143.90;51.39;72811.94;4836349;28;102792;-73
2024/03/28 09:20:46;;;;;;;;;1.00;0.00;;;;;-143.90;51.32;72787.16;4856068;28;102020;-74
2024/03/28 09:23:12;;;;;;;;;0.00;0.00;;;;;-143.90;48.03;72770.63;4851063;28;104522;-73
2024/03/28 09:25:37;;;;;;;;;2.00;2.00;;;;;-143.90;47.76;72801.63;4858343;28;102149;-73
2024/03/28 09:28:05;;;;;;;;;2.00;2.00;;;;;-143.90;48.25;72830.53;4850627;28;102459;-72
2024/03/28 09:30:30;;;;;;;;;1.00;1.00;;;;;-143.90;48.50;72867.72;4836358;28;102438;-73
2024/03/28 09:32:56;;;;;;;;;1.00;1.00;;;;;-143.90;48.49;72882.19;4851350;28;104536;-75
2024/03/28 09:35:21;;;;;;;;;0.00;0.00;;;;;-143.90;49.60;72944.19;4849853;28;102304;-72
2024/03/28 09:37:47;;;;;;;;;0.00;0.00;;;;;-143.90;49.84;72958.66;4852449;28;103197;-74
2024/03/28 09:40:13;;;;;;;;;0.00;0.00;;;;;-143.90;49.96;72985.50;4848164;28;102570;-72
2024/03/28 09:42:43;;;;;;;;;0.00;0.00;;;;;-143.90;50.76;72973.13;4852351;28;109823;-74
2024/03/28 09:45:10;;;;;;;;;0.00;0.00;;;;;-143.90;51.64;73002.03;4857268;28;104335;-72
2024/03/28 09:47:37;;;;;;;;;0.00;0.00;;;;;-143.90;51.19;73018.56;4856463;28;103809;-74
2024/03/28 09:50:07;;;;;;;;;3.00;1.00;;;;;-143.90;52.33;73047.50;4850202;28;102335;-73
2024/03/28 09:52:33;;;;;;;;;0.25;0.25;;;;;-143.90;54.31;73066.09;4823853;28;105036;-73
2024/03/28 09:54:59;;;;;;;;;2.00;1.00;;;;;-143.90;56.19;73109.50;4853997;28;102326;-72
2024/03/28 09:57:25;;;;;;;;;1.25;1.25;;;;;-143.90;55.27;73092.97;4856332;28;102317;-73
2024/03/28 09:59:50;;;;;;;;;1.50;1.00;;;;;-143.90;55.19;73103.28;4863636;28;102333;-73
2024/03/28 10:02:19;;;;;;;;;0.50;0.50;;;;;-143.90;55.66;73103.28;4847891;28;104516;-74
2024/03/28 10:04:54;;;;;;;;;1.00;0.00;;;;;-143.90;55.34;73082.63;4853889;28;102379;-74
2024/03/28 10:07:21;;;;;;;;;1.00;0.00;;;;;-143.90;54.22;73074.34;4855649;28;102017;-74
2024/03/28 10:09:48;;;;;;;;;1.00;1.00;;;;;-143.90;54.47;73090.91;4868047;28;102102;-74
2024/03/28 10:12:14;;;;;;;;;2.00;2.00;;;;;-143.90;54.68;73076.44;4854469;28;104553;-74
2024/03/28 10:14:51;;;;;;;;;2.00;1.25;;;;;-143.90;54.84;73066.09;4848435;28;101928;-73
2024/03/28 10:17:17;;;;;;;;;3.00;2.00;;;;;-143.90;53.74;73064.03;4847924;28;102377;-72
2024/03/28 10:19:43;;;;;;;;;2.00;2.00;;;;;-143.90;54.71;73039.22;4858344;28;102042;-73
2024/03/28 10:22:11;;;;;;;;;0.33;0.33;;;;;-143.90;53.65;73055.75;4857196;28;108961;-73
2024/03/28 10:24:38;;;;;;;;;0.75;0.25;;;;;-143.90;54.40;73072.28;4848747;28;102401;-74
2024/03/28 10:27:14;;;;;;;;;0.00;0.00;;;;;-143.90;55.21;73084.69;4849293;28;102441;-75
2024/03/28 10:29:54;;;;;;;;;0.00;0.00;;;;;-143.90;54.21;73084.69;4851099;28;102200;-74
2024/03/28 10:32:21;;;;;;;;;0.00;0.00;;;;;-143.90;52.33;73109.50;4842470;28;107963;-73
2024/03/28 10:34:48;;;;;;;;;0.00;0.00;;;;;-143.90;52.21;73099.16;4853729;28;104985;-75
2024/03/28 10:37:21;;;;;;;;;0.00;0.00;;;;;-143.90;53.07;73130.16;4849640;28;102449;-73
2024/03/28 10:39:47;;;;;;;;;0.00;0.00;;;;;-143.90;54.34;73173.53;4851595;28;102458;-75
2024/03/28 10:42:14;;;;;;;;;1.00;1.00;;;;;-143.90;54.26;73204.53;4851194;28;104654;-75
2024/03/28 10:44:45;;;;;;;;;0.33;0.33;;;;;-143.90;55.65;73204.53;4859894;28;101937;-74
2024/03/28 10:47:12;;;;;;;;;1.50;0.00;;;;;-143.90;56.02;73223.13;4855138;28;102038;-74
2024/03/28 10:50:23;;;;;;;;;1.25;1.00;;;;;-143.90;57.14;73202.47;4855940;28;102426;-73
2024/03/28 10:52:55;;;;;;;;;1.75;0.75;;;;;-143.90;56.17;73202.47;4821871;28;109127;-74
2024/03/28 10:55:34;;;;;;;;;0.25;0.25;;;;;-143.90;56.63;73206.59;4854273;28;102088;-74
2024/03/28 10:58:03;;;;;;;;;0.75;0.75;;;;;-143.90;55.63;73198.34;4853090;28;102194;-73
2024/03/28 11:00:29;;;;;;;;;0.75;0.75;;;;;-143.90;56.25;73159.09;4849252;28;103022;-73
2024/03/28 11:02:56;;;;;;;;;2.00;1.00;;;;;-143.90;53.80;73146.69;4847952;28;104886;-73
2024/03/28 11:05:24;;;;;;;;;1.00;1.00;;;;;-143.90;53.29;73109.50;4854233;28;102458;-74
2024/03/28 11:07:51;;;;;;;;;1.00;1.00;;;;;-143.90;52.96;73097.09;4857452;28;102991;-73